Main page
METAR-TAF:

METAR-TAF

Airports :

Oran Tafraoui Airport

Tafraoui, Algeria

latitude: 35-32-33N, longitude: 000-31-56W, elevation: 112 m

Current weather observation

The report was made 52 minutes ago, at 00:00 UTC
Wind 12 kt from the West/Southwest
Temperature 16°C
Humidity 72%
Pressure 1022 hPa
Visibility 10 km or more
no clouds below 1500 m and no cumulonimbus

METAR: DAOL 260000Z 25012KT CAVOK 16/11 Q1022

Time: 01:52 (00:52 UTC)


TAF: missing

Weather observations and forecasts of more than 4000 airports (METAR and TAF reports).

The available stations are represented by yellow and red dots on the map.

Hover mouse over dot to see the name of the station.

Then click to see weather observations and forecasts.

To change the map : click on the green buttons with a black cross to zoom in, on the green button with a dash to zoom out, or on the green arrows for adjacent maps.


METAR-TAF: